Time;durP1;ratioP1;P1;durP2;ratioP2;P2;SDS_P1;SDS_P2;PMS_P1;PMS_P2;Temp;Humidity;BMP_temperature;BMP_pressure;BME280_temperature;BME280_humidity;BME280_pressure;Samples;Min_cycle;Max_cycle;Signal;HPM_P1;HPM_P2
2021/08/22 00:01:14;;;;;;;10.43;4.70;;;14.70;99.90;;;;;;5099656;28;20035;-67
2021/08/22 00:03:40;;;;;;;9.27;4.65;;;14.80;99.90;;;;;;5099597;28;20028;-67
2021/08/22 00:06:06;;;;;;;7.57;5.05;;;14.80;99.90;;;;;;5099838;28;20030;-68
2021/08/22 00:08:36;;;;;;;9.18;6.10;;;14.70;99.90;;;;;;5099532;28;20028;-68
2021/08/22 00:11:01;;;;;;;12.90;5.68;;;14.70;99.90;;;;;;5099480;28;20024;-68
2021/08/22 00:13:27;;;;;;;16.98;7.18;;;14.70;99.90;;;;;;5099164;28;20028;-68
2021/08/22 00:15:54;;;;;;;26.35;9.07;;;14.90;99.90;;;;;;5098687;28;20127;-68
2021/08/22 00:18:20;;;;;;;18.33;8.02;;;14.90;99.90;;;;;;5099525;28;20099;-68
2021/08/22 00:20:46;;;;;;;24.77;8.55;;;15.00;99.90;;;;;;5099506;28;20067;-68
2021/08/22 00:23:12;;;;;;;23.30;7.80;;;15.10;99.90;;;;;;5099058;28;20024;-67
2021/08/22 00:25:37;;;;;;;23.35;7.53;;;15.20;99.90;;;;;;5099378;28;20069;-68
2021/08/22 00:28:03;;;;;;;17.67;7.25;;;15.30;99.90;;;;;;5098941;28;20543;-67
2021/08/22 00:30:29;;;;;;;15.40;6.75;;;15.40;99.90;;;;;;5099224;28;20169;-68
2021/08/22 00:32:55;;;;;;;16.83;8.20;;;15.50;99.90;;;;;;5098907;28;20049;-68
2021/08/22 00:35:21;;;;;;;14.73;7.43;;;15.40;99.90;;;;;;5099095;28;20020;-67
2021/08/22 00:37:47;;;;;;;13.45;6.75;;;15.40;99.90;;;;;;5098418;28;20112;-68
2021/08/22 00:40:13;;;;;;;12.10;5.15;;;15.40;99.90;;;;;;5099000;28;20048;-68
2021/08/22 00:42:38;;;;;;;14.30;6.22;;;15.30;99.90;;;;;;5098684;28;20533;-68
2021/08/22 00:45:08;;;;;;;11.70;5.63;;;15.30;99.90;;;;;;5099138;28;20020;-68
2021/08/22 00:47:42;;;;;;;14.07;7.00;;;15.30;99.90;;;;;;5098821;28;20028;-68
2021/08/22 00:50:19;;;;;;;8.73;4.85;;;15.10;99.90;;;;;;5099153;28;20020;-67
2021/08/22 00:52:50;;;;;;;11.05;5.43;;;15.00;99.90;;;;;;5098699;28;20028;-67
2021/08/22 00:55:17;;;;;;;8.60;4.45;;;15.00;99.90;;;;;;5098493;28;20548;-68
2021/08/22 00:57:43;;;;;;;9.00;4.20;;;15.00;99.90;;;;;;5098450;28;20452;-68
2021/08/22 01:00:10;;;;;;;9.18;4.50;;;14.90;99.90;;;;;;5098627;28;20074;-68
2021/08/22 01:02:51;;;;;;;6.82;4.38;;;14.90;99.90;;;;;;5098751;28;20032;-68
2021/08/22 01:05:22;;;;;;;10.48;6.13;;;14.80;99.90;;;;;;5098416;28;20058;-68
2021/08/22 01:08:02;;;;;;;10.63;5.22;;;14.80;99.90;;;;;;5098545;28;20434;-67
2021/08/22 01:10:29;;;;;;;11.05;4.93;;;14.80;99.90;;;;;;5098209;28;20050;-68
2021/08/22 01:13:13;;;;;;;11.63;5.00;;;14.80;99.90;;;;;;5098009;28;20028;-68
2021/08/22 01:15:44;;;;;;;10.48;4.97;;;14.70;99.90;;;;;;5097252;28;20061;-68
2021/08/22 01:18:14;;;;;;;12.50;5.22;;;14.70;99.90;;;;;;5097015;28;20027;-67
2021/08/22 01:20:58;;;;;;;9.13;6.07;;;14.70;99.90;;;;;;5096863;28;20040;-68
2021/08/22 01:23:25;;;;;;;11.70;5.22;;;14.50;99.90;;;;;;5097944;28;20083;-68
2021/08/22 01:25:52;;;;;;;9.95;5.38;;;14.60;99.90;;;;;;5096722;28;20024;-67
2021/08/22 01:28:18;;;;;;;11.05;5.00;;;14.60;99.90;;;;;;5082886;28;20090;-67
2021/08/22 01:30:46;;;;;;;11.23;4.80;;;14.70;99.90;;;;;;5097909;28;20052;-68
2021/08/22 01:33:15;;;;;;;9.23;4.07;;;14.60;99.90;;;;;;5097622;28;20053;-68
2021/08/22 01:35:43;;;;;;;7.75;3.97;;;14.60;99.90;;;;;;5097763;28;20480;-67
2021/08/22 01:38:09;;;;;;;11.02;4.25;;;14.40;99.90;;;;;;5096449;28;20031;-67
2021/08/22 01:40:35;;;;;;;8.00;4.15;;;14.50;99.90;;;;;;5096620;28;20020;-68
2021/08/22 01:43:02;;;;;;;8.90;4.97;;;14.40;99.90;;;;;;5097680;28;20017;-68
2021/08/22 01:45:30;;;;;;;12.40;4.90;;;14.40;99.90;;;;;;5097621;28;20059;-67
2021/08/22 01:47:56;;;;;;;15.18;3.92;;;14.40;99.90;;;;;;5097794;28;20024;-68
2021/08/22 01:50:23;;;;;;;6.03;3.47;;;14.40;99.90;;;;;;5096705;28;20353;-68
2021/08/22 01:52:52;;;;;;;6.10;3.85;;;14.40;99.90;;;;;;5097715;28;20020;-67
2021/08/22 01:55:18;;;;;;;4.45;3.50;;;14.30;99.90;;;;;;5097307;28;20040;-67
2021/08/22 01:57:44;;;;;;;6.40;3.60;;;14.20;99.90;;;;;;5097444;28;20544;-68
2021/08/22 02:00:12;;;;;;;4.63;3.38;;;14.20;99.90;;;;;;5097432;28;20116;-67
2021/08/22 02:02:56;;;;;;;4.80;2.85;;;14.20;99.90;;;;;;5097616;28;20024;-68
2021/08/22 02:05:24;;;;;;;3.10;2.53;;;14.20;99.90;;;;;;5097341;28;20031;-68
2021/08/22 02:07:50;;;;;;;5.45;2.88;;;14.00;99.90;;;;;;5096363;28;20551;-68
2021/08/22 02:10:22;;;;;;;4.40;2.90;;;14.00;99.90;;;;;;5095828;28;20024;-69
2021/08/22 02:12:50;;;;;;;5.63;2.60;;;14.00;99.90;;;;;;5097013;28;20035;-69
2021/08/22 02:15:21;;;;;;;5.25;2.75;;;13.90;99.90;;;;;;5097127;28;20020;-69
2021/08/22 02:17:59;;;;;;;3.90;2.75;;;13.90;99.90;;;;;;5095910;28;20081;-70
2021/08/22 02:20:26;;;;;;;8.18;3.20;;;13.90;99.90;;;;;;5097358;28;20012;-69
2021/08/22 02:22:54;;;;;;;4.65;3.10;;;13.90;99.90;;;;;;5097120;28;20433;-69
2021/08/22 02:25:20;;;;;;;12.07;3.78;;;13.80;99.90;;;;;;5097182;28;20024;-69
2021/08/22 02:27:46;;;;;;;6.43;3.30;;;13.90;99.90;;;;;;5096716;28;20103;-70
2021/08/22 02:30:13;;;;;;;3.97;3.45;;;13.80;99.90;;;;;;5095774;28;20067;-69
2021/08/22 02:32:39;;;;;;;7.03;4.38;;;13.80;99.90;;;;;;5096600;28;20028;-68
2021/08/22 02:35:05;;;;;;;9.57;4.13;;;13.80;99.90;;;;;;5097202;28;20027;-69
2021/08/22 02:37:32;;;;;;;6.57;3.78;;;13.80;99.90;;;;;;5096832;28;20020;-69
2021/08/22 02:39:58;;;;;;;4.35;2.70;;;13.80;99.90;;;;;;5096961;28;20043;-69
2021/08/22 02:42:24;;;;;;;14.43;4.82;;;13.70;99.90;;;;;;5095203;28;20020;-69
2021/08/22 02:44:50;;;;;;;18.63;6.57;;;13.70;99.90;;;;;;5096929;28;20050;-69
2021/08/22 02:47:16;;;;;;;10.63;5.00;;;13.80;99.90;;;;;;5096763;28;20384;-69
2021/08/22 02:49:42;;;;;;;14.05;5.70;;;13.90;99.90;;;;;;5096857;28;20084;-70
2021/08/22 02:52:09;;;;;;;13.95;6.03;;;13.90;99.90;;;;;;5096663;28;20052;-69
2021/08/22 02:54:35;;;;;;;10.55;5.05;;;14.00;99.90;;;;;;5096727;28;20113;-69
2021/08/22 02:57:01;;;;;;;11.68;4.60;;;14.10;99.90;;;;;;5096371;28;20032;-69
2021/08/22 02:59:27;;;;;;;13.15;5.18;;;14.10;99.90;;;;;;5096858;28;20024;-69
2021/08/22 03:01:53;;;;;;;12.63;5.78;;;14.10;99.90;;;;;;5097331;28;20036;-69
2021/08/22 03:04:18;;;;;;;9.20;4.70;;;14.10;99.90;;;;;;5100934;28;20020;-69
2021/08/22 03:06:44;;;;;;;9.65;4.30;;;14.10;99.90;;;;;;5100855;28;20024;-69
2021/08/22 03:09:10;;;;;;;13.52;5.13;;;14.10;99.90;;;;;;5100771;28;20031;-69
2021/08/22 03:11:37;;;;;;;6.68;3.88;;;13.90;99.90;;;;;;5100492;28;20028;-69
2021/08/22 03:14:03;;;;;;;5.85;4.07;;;13.90;99.90;;;;;;5100905;28;20024;-69
2021/08/22 03:16:29;;;;;;;12.10;4.05;;;13.90;99.90;;;;;;5099307;28;20048;-70
2021/08/22 03:18:55;;;;;;;8.32;3.95;;;13.90;99.90;;;;;;5100644;28;20024;-69
2021/08/22 03:21:21;;;;;;;13.30;4.82;;;13.90;99.90;;;;;;5099080;28;20119;-69
2021/08/22 03:23:47;;;;;;;10.23;3.92;;;13.80;99.90;;;;;;5100436;28;20534;-69
2021/08/22 03:26:13;;;;;;;8.27;3.78;;;13.90;99.90;;;;;;5100144;28;20495;-69
2021/08/22 03:28:39;;;;;;;8.20;3.85;;;13.80;99.90;;;;;;5099146;28;20024;-69
2021/08/22 03:31:04;;;;;;;7.95;3.80;;;13.80;99.90;;;;;;5100232;28;20032;-69
2021/08/22 03:33:30;;;;;;;4.82;4.05;;;13.80;99.90;;;;;;5098779;28;20099;-69
2021/08/22 03:35:56;;;;;;;6.45;3.45;;;13.80;99.90;;;;;;5100140;28;20476;-69
2021/08/22 03:38:22;;;;;;;9.07;3.90;;;13.60;99.90;;;;;;5100128;28;20440;-69
2021/08/22 03:40:48;;;;;;;5.93;3.50;;;13.80;99.90;;;;;;5100105;28;20684;-69
2021/08/22 03:43:14;;;;;;;4.18;3.78;;;13.70;99.90;;;;;;5099925;28;20095;-70
2021/08/22 03:45:40;;;;;;;7.20;2.97;;;13.60;99.90;;;;;;5098689;28;20032;-69
2021/08/22 03:48:06;;;;;;;6.88;3.38;;;13.50;99.90;;;;;;5100207;28;20093;-69
2021/08/22 03:50:32;;;;;;;3.65;2.60;;;13.70;99.90;;;;;;5100000;28;20114;-69
2021/08/22 03:52:58;;;;;;;3.53;3.00;;;13.50;99.90;;;;;;5099846;28;20043;-69
2021/08/22 03:55:24;;;;;;;5.38;3.38;;;13.50;99.90;;;;;;5099632;28;20040;-69
2021/08/22 03:57:50;;;;;;;6.00;3.17;;;13.60;99.90;;;;;;5099733;28;20012;-69
2021/08/22 04:00:17;;;;;;;4.75;3.05;;;13.60;99.90;;;;;;5099720;28;20107;-69
2021/08/22 04:02:43;;;;;;;10.23;4.18;;;13.50;99.90;;;;;;5099670;28;20031;-69
2021/08/22 04:05:11;;;;;;;8.73;3.30;;;13.40;99.90;;;;;;5099634;28;20549;-70
2021/08/22 04:07:38;;;;;;;5.85;3.22;;;13.60;99.90;;;;;;5098493;28;20035;-69
2021/08/22 04:10:05;;;;;;;5.28;3.40;;;13.50;99.90;;;;;;5098279;28;20035;-69
2021/08/22 04:12:32;;;;;;;4.18;2.92;;;13.30;99.90;;;;;;5098466;28;20364;-69
2021/08/22 04:14:59;;;;;;;3.50;2.25;;;13.40;99.90;;;;;;5099236;28;20024;-69
2021/08/22 04:17:25;;;;;;;2.42;2.10;;;13.40;99.90;;;;;;5098201;28;20036;-69
2021/08/22 04:19:50;;;;;;;5.00;2.20;;;13.40;99.90;;;;;;5099394;28;20029;-69
2021/08/22 04:22:16;;;;;;;4.70;3.08;;;13.30;99.90;;;;;;5099534;28;20021;-69
2021/08/22 04:24:43;;;;;;;4.13;2.72;;;13.30;99.90;;;;;;5099059;28;20028;-70
2021/08/22 04:27:09;;;;;;;3.30;2.65;;;13.30;99.90;;;;;;5099177;28;20150;-69
2021/08/22 04:29:39;;;;;;;3.97;2.50;;;13.10;99.90;;;;;;5099344;28;20028;-69
2021/08/22 04:32:05;;;;;;;3.50;2.10;;;13.10;99.90;;;;;;5097719;28;20487;-69
2021/08/22 04:34:31;;;;;;;5.93;2.10;;;13.00;99.90;;;;;;5099062;28;20027;-68
2021/08/22 04:36:57;;;;;;;2.83;1.98;;;13.10;99.90;;;;;;5097786;28;20028;-69
2021/08/22 04:39:23;;;;;;;2.70;2.20;;;13.20;99.90;;;;;;5098895;28;20026;-69
2021/08/22 04:41:49;;;;;;;6.10;2.90;;;13.00;99.90;;;;;;5098803;28;20077;-69
2021/08/22 04:44:15;;;;;;;3.67;2.58;;;13.00;99.90;;;;;;5097639;28;20020;-69
2021/08/22 04:46:43;;;;;;;4.07;2.35;;;13.10;99.90;;;;;;5099009;28;20027;-70
2021/08/22 04:49:09;;;;;;;2.25;2.03;;;13.10;99.90;;;;;;5098709;28;20035;-69
2021/08/22 04:51:36;;;;;;;3.92;2.03;;;13.00;99.90;;;;;;5098931;28;20099;-69
2021/08/22 04:54:02;;;;;;;2.58;2.38;;;13.30;99.90;;;;;;5098546;28;20016;-69
2021/08/22 04:56:28;;;;;;;4.03;2.40;;;13.40;99.90;;;;;;5096978;28;20055;-69
2021/08/22 04:58:53;;;;;;;3.08;2.67;;;13.30;99.90;;;;;;5098652;28;20024;-70
2021/08/22 05:01:19;;;;;;;7.97;4.60;;;13.30;99.90;;;;;;5098604;28;20065;-69
2021/08/22 05:03:45;;;;;;;4.43;2.22;;;13.40;99.90;;;;;;5098592;28;20097;-69
2021/08/22 05:06:11;;;;;;;5.55;2.20;;;13.50;99.90;;;;;;5098664;28;20028;-69
2021/08/22 05:08:38;;;;;;;2.80;2.33;;;13.50;99.90;;;;;;5098492;28;20020;-69
2021/08/22 05:11:04;;;;;;;6.60;2.80;;;13.70;99.90;;;;;;5098284;28;20028;-69
2021/08/22 05:13:31;;;;;;;2.33;1.92;;;13.60;99.90;;;;;;5098336;28;20020;-69
2021/08/22 05:15:57;;;;;;;4.15;1.98;;;13.70;99.90;;;;;;5098434;28;20736;-69
2021/08/22 05:18:24;;;;;;;5.07;2.60;;;13.60;99.90;;;;;;5098190;28;20027;-69
2021/08/22 05:20:51;;;;;;;5.05;1.52;;;13.70;99.90;;;;;;5098279;28;20019;-69
2021/08/22 05:23:18;;;;;;;2.28;2.10;;;13.80;99.90;;;;;;5097994;28;20083;-69
2021/08/22 05:25:44;;;;;;;5.03;2.30;;;13.90;99.90;;;;;;5098096;28;20024;-69
2021/08/22 05:28:10;;;;;;;2.33;2.10;;;13.70;99.90;;;;;;5097763;28;20073;-69
2021/08/22 05:30:36;;;;;;;3.65;1.80;;;13.80;99.90;;;;;;5098338;28;20030;-69
2021/08/22 05:33:02;;;;;;;9.70;2.80;;;13.70;99.90;;;;;;5097614;28;20425;-69
2021/08/22 05:35:28;;;;;;;9.82;2.97;;;13.80;99.90;;;;;;5097937;28;20028;-69
2021/08/22 05:37:54;;;;;;;4.25;2.15;;;13.80;99.90;;;;;;5096500;28;20024;-69
2021/08/22 05:40:20;;;;;;;6.32;3.13;;;13.90;99.90;;;;;;5096457;28;20020;-69
2021/08/22 05:42:46;;;;;;;6.60;2.65;;;13.90;99.90;;;;;;5096160;28;20032;-69
2021/08/22 05:45:11;;;;;;;2.53;2.08;;;13.90;99.90;;;;;;5097787;28;20024;-70
2021/08/22 05:47:38;;;;;;;3.45;2.20;;;14.00;99.90;;;;;;5097693;28;20085;-69
2021/08/22 05:50:05;;;;;;;4.55;3.05;;;14.00;99.90;;;;;;5097987;28;20111;-69
2021/08/22 05:52:35;;;;;;;8.73;3.25;;;14.10;99.90;;;;;;5096122;28;20054;-69
2021/08/22 05:55:08;;;;;;;6.40;3.50;;;14.00;99.90;;;;;;5097425;28;20563;-69
2021/08/22 05:57:34;;;;;;;5.25;2.92;;;14.10;99.90;;;;;;5097721;28;20016;-69
2021/08/22 06:00:00;;;;;;;10.02;4.35;;;14.10;99.90;;;;;;5097366;28;20399;-69
2021/08/22 06:02:26;;;;;;;7.45;4.07;;;14.30;99.90;;;;;;5097540;28;20051;-69
2021/08/22 06:04:52;;;;;;;7.30;3.22;;;14.40;99.90;;;;;;5097437;28;20028;-69
2021/08/22 06:07:21;;;;;;;5.57;2.95;;;14.50;99.90;;;;;;5097509;28;20157;-69
2021/08/22 06:09:48;;;;;;;3.53;2.92;;;14.50;99.90;;;;;;5097257;28;20128;-70
2021/08/22 06:12:14;;;;;;;4.68;2.95;;;14.60;99.90;;;;;;5095598;28;20412;-69
2021/08/22 06:14:40;;;;;;;2.72;2.53;;;14.80;99.90;;;;;;5095847;28;20431;-69
2021/08/22 06:17:06;;;;;;;3.50;3.20;;;14.90;99.90;;;;;;5097494;28;20048;-69
2021/08/22 06:19:31;;;;;;;8.27;4.22;;;15.00;99.90;;;;;;5097191;28;20061;-69
2021/08/22 06:21:57;;;;;;;4.78;3.85;;;15.10;99.90;;;;;;5095866;28;20500;-69
2021/08/22 06:24:23;;;;;;;4.80;3.42;;;15.20;99.90;;;;;;5095514;28;20050;-69
2021/08/22 06:26:49;;;;;;;5.05;3.20;;;15.20;99.90;;;;;;5096988;28;20023;-70
2021/08/22 06:29:15;;;;;;;7.38;3.67;;;15.20;99.90;;;;;;5096983;28;20401;-69
2021/08/22 06:31:40;;;;;;;5.55;3.60;;;15.40;99.90;;;;;;5096976;28;20436;-69
2021/08/22 06:34:07;;;;;;;4.97;3.20;;;15.40;99.90;;;;;;5097169;28;20077;-69
2021/08/22 06:36:39;;;;;;;7.93;2.78;;;15.60;99.90;;;;;;5095296;28;20051;-70
2021/08/22 06:39:09;;;;;;;3.83;2.92;;;15.70;99.90;;;;;;5097026;28;20395;-69
2021/08/22 06:41:36;;;;;;;6.18;3.33;;;15.80;99.90;;;;;;5095347;28;20551;-69
2021/08/22 06:44:03;;;;;;;3.97;3.17;;;15.90;99.90;;;;;;5096872;28;20016;-69
2021/08/22 06:46:29;;;;;;;5.70;4.00;;;16.00;99.90;;;;;;5097039;28;20430;-69
2021/08/22 06:48:55;;;;;;;4.88;3.38;;;16.10;99.90;;;;;;5096698;28;20034;-69
2021/08/22 06:51:21;;;;;;;5.88;3.97;;;16.30;99.90;;;;;;5096760;28;20024;-69
2021/08/22 06:53:47;;;;;;;7.53;4.07;;;16.30;99.90;;;;;;5096676;28;20028;-69
2021/08/22 06:56:13;;;;;;;5.95;3.55;;;16.40;99.90;;;;;;5096258;28;20052;-69
2021/08/22 06:58:39;;;;;;;4.03;3.22;;;16.40;99.90;;;;;;5095351;28;20599;-69
2021/08/22 07:01:06;;;;;;;8.10;3.25;;;16.50;99.90;;;;;;5096784;28;20039;-70
2021/08/22 07:03:32;;;;;;;12.27;3.97;;;16.50;99.90;;;;;;5095245;28;20036;-69
2021/08/22 07:05:58;;;;;;;5.38;2.90;;;16.70;99.90;;;;;;5096851;28;20036;-70
2021/08/22 07:08:24;;;;;;;5.95;3.30;;;16.70;99.90;;;;;;5095181;28;20059;-69
2021/08/22 07:10:50;;;;;;;6.18;2.95;;;16.70;99.90;;;;;;5096406;28;20028;-69
2021/08/22 07:13:16;;;;;;;3.45;2.38;;;16.90;99.90;;;;;;5096432;28;20070;-70
2021/08/22 07:15:42;;;;;;;7.32;3.65;;;16.90;99.90;;;;;;5096684;28;20448;-70
2021/08/22 07:18:07;;;;;;;4.47;3.28;;;17.10;99.90;;;;;;5096543;28;20031;-69
2021/08/22 07:20:33;;;;;;;5.97;3.28;;;17.20;99.90;;;;;;5095360;28;20484;-69
2021/08/22 07:22:59;;;;;;;8.63;3.78;;;17.20;99.90;;;;;;5096497;28;20020;-69
2021/08/22 07:25:25;;;;;;;10.85;3.80;;;17.10;99.90;;;;;;5096570;28;20035;-69
2021/08/22 07:27:51;;;;;;;4.65;2.60;;;17.20;99.90;;;;;;5096031;28;20028;-69
2021/08/22 07:30:17;;;;;;;3.90;2.95;;;17.40;99.90;;;;;;5096640;28;20438;-69
2021/08/22 07:32:43;;;;;;;6.15;3.70;;;17.50;99.90;;;;;;5096116;28;20588;-69
2021/08/22 07:35:09;;;;;;;14.13;3.83;;;;;;;;;;5096237;28;20049;-69
2021/08/22 07:37:35;;;;;;;6.90;3.38;;;17.90;99.90;;;;;;5096392;28;20020;-69
2021/08/22 07:40:02;;;;;;;5.88;3.13;;;17.80;99.90;;;;;;5096416;28;20044;-69
2021/08/22 07:42:28;;;;;;;5.45;2.75;;;;;;;;;;5094947;28;20036;-66
2021/08/22 07:44:54;;;;;;;4.63;3.55;;;18.30;99.90;;;;;;5096367;28;20078;-67
2021/08/22 07:47:19;;;;;;;5.18;3.40;;;18.80;99.90;;;;;;5096196;28;20020;-67
2021/08/22 07:49:45;;;;;;;5.85;4.10;;;19.50;99.90;;;;;;5099688;28;20028;-67
2021/08/22 07:52:11;;;;;;;5.88;2.53;;;;;;;;;;5099834;28;20032;-69
2021/08/22 07:54:37;;;;;;;4.85;2.70;;;19.70;99.90;;;;;;5099821;28;20032;-69
2021/08/22 07:57:03;;;;;;;5.82;2.67;;;19.80;99.90;;;;;;5098446;28;20028;-70
2021/08/22 07:59:29;;;;;;;8.75;3.72;;;19.80;99.90;;;;;;5099874;28;20409;-69
2021/08/22 08:01:57;;;;;;;7.57;3.22;;;19.80;99.90;;;;;;5099692;28;20024;-70
2021/08/22 08:04:23;;;;;;;6.30;2.53;;;19.80;99.90;;;;;;5099875;28;20065;-69
2021/08/22 08:06:49;;;;;;;4.38;2.38;;;19.60;99.90;;;;;;5099699;28;20438;-69
2021/08/22 08:09:15;;;;;;;5.53;2.97;;;19.50;99.90;;;;;;5099559;28;20027;-69
2021/08/22 08:11:41;;;;;;;6.20;2.33;;;19.70;99.90;;;;;;5099216;28;20036;-67
2021/08/22 08:14:08;;;;;;;4.38;2.25;;;20.00;99.90;;;;;;5098287;28;20016;-67
2021/08/22 08:16:34;;;;;;;3.20;2.50;;;;;;;;;;5099765;28;20031;-67
2021/08/22 08:19:01;;;;;;;4.53;1.65;;;;;;;;;;5099648;28;20020;-67
2021/08/22 08:21:27;;;;;;;2.25;1.48;;;;;;;;;;5099368;28;20063;-65
2021/08/22 08:23:56;;;;;;;3.67;1.58;;;;;;;;;;5099224;28;20024;-66
2021/08/22 08:26:22;;;;;;;5.10;1.80;;;21.40;99.90;;;;;;5099137;28;20078;-66
2021/08/22 08:28:48;;;;;;;3.63;1.55;;;21.90;99.90;;;;;;5095071;28;20036;-67
2021/08/22 08:31:14;;;;;;;3.20;1.35;;;22.30;99.90;;;;;;5101392;28;20071;-67
2021/08/22 08:33:40;;;;;;;2.53;1.00;;;22.90;99.90;;;;;;5099283;28;20484;-67
2021/08/22 08:36:05;;;;;;;2.83;1.00;;;22.90;99.90;;;;;;5097362;28;20045;-67
2021/08/22 08:38:32;;;;;;;2.58;0.90;;;23.40;99.90;;;;;;5098578;28;20421;-68
2021/08/22 08:41:00;;;;;;;5.05;1.00;;;23.90;99.90;;;;;;5098593;28;20483;-68
2021/08/22 08:43:26;;;;;;;4.38;1.08;;;24.20;99.90;;;;;;5098594;28;20484;-68
2021/08/22 08:46:21;;;;;;;3.08;1.00;;;24.40;99.90;;;;;;5098755;28;20241;-67
2021/08/22 08:49:05;;;;;;;3.10;1.17;;;24.30;99.90;;;;;;5101330;28;20031;-68
2021/08/22 08:51:58;;;;;;;3.33;0.75;;;24.00;99.90;;;;;;5098224;28;20024;-68
2021/08/22 08:54:41;;;;;;;1.80;0.82;;;24.20;99.90;;;;;;5098455;28;20044;-68
2021/08/22 08:57:07;;;;;;;3.38;1.25;;;24.30;99.90;;;;;;5098322;28;20571;-69
2021/08/22 08:59:39;;;;;;;3.90;1.20;;;23.80;99.90;;;;;;5095857;28;20044;-68
2021/08/22 09:02:05;;;;;;;1.55;0.95;;;23.60;99.90;;;;;;5098384;28;20089;-68
2021/08/22 09:04:58;;;;;;;2.50;1.00;;;23.50;99.90;;;;;;5099440;28;20046;-68
2021/08/22 09:08:03;;;;;;;2.45;1.02;;;23.80;99.90;;;;;;5098945;28;20055;-68
2021/08/22 09:11:07;;;;;;;4.60;1.02;;;24.00;99.90;;;;;;5099101;28;20107;-68
2021/08/22 09:14:00;;;;;;;2.80;0.88;;;23.70;99.90;;;;;;5098732;28;20395;-68
2021/08/22 09:16:36;;;;;;;4.03;0.88;;;;;;;;;;5099539;28;20028;-68
2021/08/22 09:19:19;;;;;;;2.42;1.38;;;23.50;99.90;;;;;;5098862;28;20028;-68
2021/08/22 09:22:13;;;;;;;3.20;1.15;;;23.20;99.90;;;;;;5097762;28;20038;-68
2021/08/22 09:24:57;;;;;;;1.75;0.60;;;23.10;99.90;;;;;;5107311;28;20023;-68
2021/08/22 09:27:42;;;;;;;2.78;1.15;;;23.20;99.90;;;;;;5098105;28;20103;-68
2021/08/22 09:30:41;;;;;;;0.80;0.80;;;23.40;99.90;;;;;;5098106;28;20031;-68
2021/08/22 09:33:44;;;;;;;2.78;1.05;;;23.90;99.90;;;;;;5097794;28;20051;-69
2021/08/22 09:36:30;;;;;;;5.22;1.58;;;25.70;99.90;;;;;;5096051;28;20484;-68
2021/08/22 09:39:44;;;;;;;5.18;1.10;;;25.50;99.90;;;;;;5097819;28;20024;-68
2021/08/22 09:42:46;;;;;;;1.63;0.80;;;25.40;99.90;;;;;;5096920;28;20026;-69
2021/08/22 09:45:31;;;;;;;4.05;1.10;;;;;;;;;;5097832;28;20028;-69
2021/08/22 09:48:25;;;;;;;2.58;1.40;;;24.40;99.90;;;;;;5097995;28;20396;-69
2021/08/22 09:51:12;;;;;;;1.42;0.68;;;24.30;99.90;;;;;;5097218;28;20023;-68
2021/08/22 09:53:56;;;;;;;1.70;0.60;;;24.90;99.90;;;;;;5095656;28;20028;-68
2021/08/22 09:56:59;;;;;;;1.75;0.80;;;26.00;99.90;;;;;;5096260;28;20136;-68
2021/08/22 10:00:02;;;;;;;3.20;1.25;;;25.90;99.90;;;;;;5097604;28;20031;-68
2021/08/22 10:02:49;;;;;;;1.85;0.77;;;25.30;99.90;;;;;;5097496;28;20024;-68
2021/08/22 10:05:25;;;;;;;3.30;0.88;;;24.40;99.90;;;;;;5097389;28;20024;-68
2021/08/22 10:08:00;;;;;;;3.65;0.90;;;23.90;99.90;;;;;;5097624;28;20043;-68
2021/08/22 10:10:28;;;;;;;2.80;0.98;;;24.30;99.90;;;;;;5097013;28;20024;-68
2021/08/22 10:12:54;;;;;;;4.10;0.90;;;24.80;99.90;;;;;;5096867;28;20036;-68
2021/08/22 10:15:21;;;;;;;1.77;1.13;;;25.80;99.90;;;;;;5097368;28;20012;-68
2021/08/22 10:17:50;;;;;;;1.75;0.68;;;26.90;99.90;;;;;;5097229;28;20020;-68
2021/08/22 10:20:17;;;;;;;3.25;1.15;;;27.80;99.90;;;;;;5097366;28;20492;-71
2021/08/22 10:22:44;;;;;;;2.55;0.60;;;28.50;99.70;;;;;;5097226;28;20388;-72
2021/08/22 10:25:12;;;;;;;1.75;0.65;;;;;;;;;;5097105;28;20066;-71
2021/08/22 10:27:42;;;;;;;1.70;0.75;;;29.40;95.60;;;;;;5096795;28;20483;-72
2021/08/22 10:30:25;;;;;;;3.75;1.15;;;29.50;96.70;;;;;;5097031;28;20020;-73
2021/08/22 10:33:10;;;;;;;1.70;0.65;;;29.20;96.10;;;;;;5096844;28;20032;-73
2021/08/22 10:35:36;;;;;;;2.55;0.68;;;29.50;94.10;;;;;;5097253;28;20511;-72
2021/08/22 10:38:23;;;;;;;1.02;0.60;;;28.60;93.00;;;;;;5097244;28;20051;-73
2021/08/22 10:40:49;;;;;;;0.88;0.57;;;27.50;95.20;;;;;;5095251;28;20027;-72
2021/08/22 10:43:17;;;;;;;0.68;0.35;;;27.30;95.40;;;;;;5096966;28;20555;-71
2021/08/22 10:45:47;;;;;;;1.92;1.00;;;27.50;95.70;;;;;;5096829;28;20016;-71
2021/08/22 10:48:22;;;;;;;2.92;0.93;;;28.40;95.50;;;;;;5097043;28;20059;-70
2021/08/22 10:50:56;;;;;;;1.13;0.70;;;29.40;94.70;;;;;;5096808;28;20039;-72
2021/08/22 10:53:30;;;;;;;3.70;2.22;;;30.20;93.20;;;;;;5096698;28;20021;-72
2021/08/22 10:55:58;;;;;;;0.60;0.30;;;30.50;92.70;;;;;;5096415;28;20048;-71
2021/08/22 10:58:59;;;;;;;2.45;0.80;;;30.10;90.30;;;;;;5095469;28;20513;-71
2021/08/22 11:01:29;;;;;;;1.65;0.50;;;30.50;91.00;;;;;;5088632;28;20044;-71
2021/08/22 11:04:17;;;;;;;1.52;0.80;;;30.50;89.40;;;;;;5096600;28;20024;-69
2021/08/22 11:07:03;;;;;;;3.42;0.60;;;30.20;89.00;;;;;;5096787;28;20025;-70
2021/08/22 11:09:47;;;;;;;1.30;0.50;;;30.00;88.50;;;;;;5096685;28;20063;-70
2021/08/22 11:12:29;;;;;;;0.88;0.50;;;29.00;87.30;;;;;;5096504;28;20472;-71
2021/08/22 11:14:57;;;;;;;1.88;0.52;;;27.90;88.50;;;;;;5096591;28;20095;-69
2021/08/22 11:17:23;;;;;;;2.25;0.50;;;26.40;90.40;;;;;;5096579;28;20112;-71
2021/08/22 11:19:49;;;;;;;1.15;0.50;;;25.70;92.60;;;;;;5096509;28;20021;-71
2021/08/22 11:22:29;;;;;;;1.50;0.60;;;24.90;92.90;;;;;;5097580;28;20024;-70
2021/08/22 11:24:57;;;;;;;1.95;0.70;;;24.70;93.50;;;;;;5100387;28;20373;-70
2021/08/22 11:27:25;;;;;;;3.42;0.63;;;24.40;94.70;;;;;;5100253;28;20020;-70
2021/08/22 11:30:03;;;;;;;0.85;0.63;;;23.80;95.70;;;;;;5100404;28;20563;-72
2021/08/22 11:32:30;;;;;;;0.88;0.52;;;23.70;96.10;;;;;;5098755;28;20115;-69
2021/08/22 11:35:10;;;;;;;1.58;0.55;;;24.40;97.60;;;;;;5099121;28;20031;-69
2021/08/22 11:37:36;;;;;;;0.85;0.60;;;25.00;97.20;;;;;;5100537;28;20028;-69
2021/08/22 11:40:08;;;;;;;1.65;0.45;;;25.40;95.20;;;;;;5100463;28;20023;-59
2021/08/22 11:42:34;;;;;;;0.88;0.40;;;25.60;95.30;;;;;;5099939;28;20636;-59
2021/08/22 11:45:11;;;;;;;0.63;0.30;;;25.70;94.80;;;;;;5100285;28;20052;-59
2021/08/22 11:47:39;;;;;;;0.60;0.40;;;26.00;95.10;;;;;;5100275;28;20063;-59
2021/08/22 11:50:07;;;;;;;2.05;0.93;;;25.90;94.70;;;;;;5100183;28;20053;-58
2021/08/22 11:52:36;;;;;;;1.75;0.50;;;25.90;95.10;;;;;;5099877;28;20388;-59
2021/08/22 11:55:04;;;;;;;1.33;0.57;;;28.50;94.80;;;;;;5099807;28;20046;-59
2021/08/22 11:57:30;;;;;;;0.80;0.38;;;28.70;94.90;;;;;;5099630;28;20028;-59
2021/08/22 12:00:02;;;;;;;1.17;0.70;;;30.70;91.10;;;;;;5099800;28;20082;-59
2021/08/22 12:02:28;;;;;;;2.53;0.55;;;31.60;90.10;;;;;;5099787;28;20031;-59
2021/08/22 12:05:12;;;;;;;0.98;0.40;;;30.90;83.90;;;;;;5099690;28;20081;-59
2021/08/22 12:07:38;;;;;;;0.82;0.55;;;30.80;84.50;;;;;;5099638;28;20032;-59
2021/08/22 12:10:04;;;;;;;5.15;0.70;;;30.50;86.00;;;;;;5100040;28;20024;-59
2021/08/22 12:12:36;;;;;;;0.55;0.50;;;30.50;87.60;;;;;;5098415;28;20024;-59
2021/08/22 12:15:09;;;;;;;0.40;0.28;;;30.90;87.70;;;;;;5091447;28;20024;-60
2021/08/22 12:17:35;;;;;;;1.30;0.40;;;31.60;87.50;;;;;;5099880;28;20023;-59
2021/08/22 12:20:21;;;;;;;1.15;0.43;;;33.20;81.10;;;;;;5102067;28;20023;-60
2021/08/22 12:23:07;;;;;;;1.98;0.52;;;32.90;80.20;;;;;;5099225;28;20043;-59
2021/08/22 12:25:34;;;;;;;3.00;0.50;;;31.40;93.80;;;;;;5099239;28;20403;-59
2021/08/22 12:28:20;;;;;;;2.67;0.70;;;28.90;83.10;;;;;;5098807;28;20028;-59
2021/08/22 12:30:47;;;;;;;2.17;0.57;;;;;;;;;;5099191;28;20020;-59
2021/08/22 12:33:41;;;;;;;0.55;0.30;;;28.40;88.80;;;;;;5102063;28;20040;-59
2021/08/22 12:36:15;;;;;;;1.55;0.50;;;29.00;83.80;;;;;;5094042;28;20193;-60
2021/08/22 12:38:47;;;;;;;0.98;0.30;;;29.30;86.00;;;;;;5097463;28;20017;-59
2021/08/22 12:41:40;;;;;;;2.08;0.73;;;28.80;89.20;;;;;;5098190;28;20024;-58
2021/08/22 12:44:08;;;;;;;0.98;0.40;;;27.60;85.90;;;;;;5098852;28;20032;-58
2021/08/22 12:46:35;;;;;;;1.40;0.73;;;27.60;86.70;;;;;;5099063;28;20016;-58
2021/08/22 12:49:02;;;;;;;2.13;0.60;;;26.30;89.90;;;;;;5098933;28;20025;-58
2021/08/22 12:51:28;;;;;;;1.20;0.50;;;25.80;90.60;;;;;;5098894;28;20020;-58
2021/08/22 12:53:56;;;;;;;1.30;0.40;;;25.80;90.90;;;;;;5098587;28;20040;-58
2021/08/22 12:56:22;;;;;;;0.68;0.47;;;26.70;92.30;;;;;;5098380;28;20496;-57
2021/08/22 12:58:51;;;;;;;1.45;0.55;;;28.10;99.90;;;;;;5098609;28;20039;-58
2021/08/22 13:01:17;;;;;;;1.52;0.22;;;28.70;88.30;;;;;;5098745;28;20016;-58
2021/08/22 13:03:43;;;;;;;2.60;0.73;;;29.30;88.30;;;;;;5098433;28;20117;-58